sensor_id;sensor_type;location;lat;lon;timestamp;P1;durP1;ratioP1;P2;durP2;ratioP2
315;SDS011;14128;48.686;9.738;2023-06-14T00:00:46;5.20;;;4.90;;
315;SDS011;14128;48.686;9.738;2023-06-14T00:03:14;7.20;;;5.23;;
315;SDS011;14128;48.686;9.738;2023-06-14T00:05:42;7.40;;;6.00;;
315;SDS011;14128;48.686;9.738;2023-06-14T00:08:11;6.63;;;6.17;;
315;SDS011;14128;48.686;9.738;2023-06-14T00:10:38;7.17;;;5.73;;
315;SDS011;14128;48.686;9.738;2023-06-14T00:13:08;10.77;;;7.60;;
315;SDS011;14128;48.686;9.738;2023-06-14T00:15:35;12.93;;;6.73;;
315;SDS011;14128;48.686;9.738;2023-06-14T00:18:03;9.63;;;6.43;;
315;SDS011;14128;48.686;9.738;2023-06-14T00:20:30;7.33;;;5.97;;
315;SDS011;14128;48.686;9.738;2023-06-14T00:22:58;9.43;;;5.83;;
315;SDS011;14128;48.686;9.738;2023-06-14T00:25:25;8.20;;;5.77;;
315;SDS011;14128;48.686;9.738;2023-06-14T00:27:53;5.63;;;5.13;;
315;SDS011;14128;48.686;9.738;2023-06-14T00:30:22;8.30;;;6.70;;
315;SDS011;14128;48.686;9.738;2023-06-14T00:32:49;9.23;;;7.23;;
315;SDS011;14128;48.686;9.738;2023-06-14T00:35:16;10.87;;;6.53;;
315;SDS011;14128;48.686;9.738;2023-06-14T00:37:43;12.53;;;7.53;;
315;SDS011;14128;48.686;9.738;2023-06-14T00:40:10;9.50;;;8.07;;
315;SDS011;14128;48.686;9.738;2023-06-14T00:42:37;7.73;;;6.67;;
315;SDS011;14128;48.686;9.738;2023-06-14T00:45:04;10.83;;;7.60;;
315;SDS011;14128;48.686;9.738;2023-06-14T00:47:33;10.70;;;8.17;;
315;SDS011;14128;48.686;9.738;2023-06-14T00:50:02;12.90;;;8.10;;
315;SDS011;14128;48.686;9.738;2023-06-14T00:52:32;10.93;;;9.27;;
315;SDS011;14128;48.686;9.738;2023-06-14T00:54:59;13.90;;;8.43;;
315;SDS011;14128;48.686;9.738;2023-06-14T00:57:26;10.53;;;7.90;;
315;SDS011;14128;48.686;9.738;2023-06-14T00:59:54;9.53;;;8.40;;
315;SDS011;14128;48.686;9.738;2023-06-14T01:02:21;15.00;;;9.90;;
315;SDS011;14128;48.686;9.738;2023-06-14T01:04:50;12.60;;;8.03;;
315;SDS011;14128;48.686;9.738;2023-06-14T01:07:21;15.17;;;7.83;;
315;SDS011;14128;48.686;9.738;2023-06-14T01:09:58;8.87;;;6.80;;
315;SDS011;14128;48.686;9.738;2023-06-14T01:12:36;11.77;;;7.47;;
315;SDS011;14128;48.686;9.738;2023-06-14T01:15:10;12.50;;;7.60;;
315;SDS011;14128;48.686;9.738;2023-06-14T01:17:39;8.90;;;6.87;;
315;SDS011;14128;48.686;9.738;2023-06-14T01:20:11;8.47;;;6.30;;
315;SDS011;14128;48.686;9.738;2023-06-14T01:22:47;11.67;;;7.80;;
315;SDS011;14128;48.686;9.738;2023-06-14T01:25:18;10.23;;;6.97;;
315;SDS011;14128;48.686;9.738;2023-06-14T01:27:46;9.07;;;7.27;;
315;SDS011;14128;48.686;9.738;2023-06-14T01:30:14;11.50;;;8.03;;
315;SDS011;14128;48.686;9.738;2023-06-14T01:32:42;9.13;;;6.50;;
315;SDS011;14128;48.686;9.738;2023-06-14T01:35:10;7.57;;;6.83;;
315;SDS011;14128;48.686;9.738;2023-06-14T01:37:37;9.93;;;6.60;;
315;SDS011;14128;48.686;9.738;2023-06-14T01:40:08;7.13;;;5.37;;
315;SDS011;14128;48.686;9.738;2023-06-14T01:42:37;7.90;;;6.30;;
315;SDS011;14128;48.686;9.738;2023-06-14T01:45:05;13.57;;;7.60;;
315;SDS011;14128;48.686;9.738;2023-06-14T01:47:33;11.43;;;6.70;;
315;SDS011;14128;48.686;9.738;2023-06-14T01:50:01;8.27;;;6.30;;
315;SDS011;14128;48.686;9.738;2023-06-14T01:52:28;13.13;;;6.53;;
315;SDS011;14128;48.686;9.738;2023-06-14T01:54:55;8.90;;;6.27;;
315;SDS011;14128;48.686;9.738;2023-06-14T01:57:24;7.20;;;6.10;;
315;SDS011;14128;48.686;9.738;2023-06-14T01:59:52;11.40;;;6.27;;
315;SDS011;14128;48.686;9.738;2023-06-14T02:02:19;5.63;;;5.33;;
315;SDS011;14128;48.686;9.738;2023-06-14T02:04:46;7.00;;;5.70;;
315;SDS011;14128;48.686;9.738;2023-06-14T02:07:13;6.50;;;5.60;;
315;SDS011;14128;48.686;9.738;2023-06-14T02:09:40;8.33;;;5.63;;
315;SDS011;14128;48.686;9.738;2023-06-14T02:12:08;8.00;;;5.60;;
315;SDS011;14128;48.686;9.738;2023-06-14T02:14:37;10.20;;;6.87;;
315;SDS011;14128;48.686;9.738;2023-06-14T02:17:04;6.17;;;5.20;;
315;SDS011;14128;48.686;9.738;2023-06-14T02:19:31;7.97;;;6.13;;
315;SDS011;14128;48.686;9.738;2023-06-14T02:21:58;7.30;;;5.43;;
315;SDS011;14128;48.686;9.738;2023-06-14T02:24:25;7.50;;;5.10;;
315;SDS011;14128;48.686;9.738;2023-06-14T02:26:52;5.50;;;4.80;;
315;SDS011;14128;48.686;9.738;2023-06-14T02:29:19;5.70;;;4.70;;
315;SDS011;14128;48.686;9.738;2023-06-14T02:31:47;7.83;;;5.60;;
315;SDS011;14128;48.686;9.738;2023-06-14T02:34:14;7.53;;;5.40;;
315;SDS011;14128;48.686;9.738;2023-06-14T02:36:43;6.67;;;5.17;;
315;SDS011;14128;48.686;9.738;2023-06-14T02:39:10;7.80;;;4.87;;
315;SDS011;14128;48.686;9.738;2023-06-14T02:41:36;10.87;;;5.40;;
315;SDS011;14128;48.686;9.738;2023-06-14T02:44:03;9.37;;;6.73;;
315;SDS011;14128;48.686;9.738;2023-06-14T02:46:31;7.33;;;5.40;;
315;SDS011;14128;48.686;9.738;2023-06-14T02:48:59;8.37;;;5.47;;
315;SDS011;14128;48.686;9.738;2023-06-14T02:51:26;7.97;;;5.90;;
315;SDS011;14128;48.686;9.738;2023-06-14T02:53:53;8.10;;;5.90;;
315;SDS011;14128;48.686;9.738;2023-06-14T02:56:20;8.63;;;6.07;;
315;SDS011;14128;48.686;9.738;2023-06-14T02:58:47;9.23;;;6.33;;
315;SDS011;14128;48.686;9.738;2023-06-14T03:01:15;10.00;;;6.97;;
315;SDS011;14128;48.686;9.738;2023-06-14T03:03:43;12.57;;;6.70;;
315;SDS011;14128;48.686;9.738;2023-06-14T03:06:11;8.37;;;6.23;;
315;SDS011;14128;48.686;9.738;2023-06-14T03:08:39;11.70;;;7.50;;
315;SDS011;14128;48.686;9.738;2023-06-14T03:11:06;10.00;;;7.00;;
315;SDS011;14128;48.686;9.738;2023-06-14T03:13:34;10.00;;;7.23;;
315;SDS011;14128;48.686;9.738;2023-06-14T03:16:00;11.17;;;8.63;;
315;SDS011;14128;48.686;9.738;2023-06-14T03:18:29;13.40;;;8.10;;
315;SDS011;14128;48.686;9.738;2023-06-14T03:21:00;9.90;;;6.43;;
315;SDS011;14128;48.686;9.738;2023-06-14T03:23:29;6.80;;;6.40;;
315;SDS011;14128;48.686;9.738;2023-06-14T03:25:56;7.97;;;5.60;;
315;SDS011;14128;48.686;9.738;2023-06-14T03:28:23;8.13;;;5.17;;
315;SDS011;14128;48.686;9.738;2023-06-14T03:30:50;7.20;;;5.77;;
315;SDS011;14128;48.686;9.738;2023-06-14T03:33:17;6.43;;;5.13;;
315;SDS011;14128;48.686;9.738;2023-06-14T03:35:46;8.20;;;5.80;;
315;SDS011;14128;48.686;9.738;2023-06-14T03:38:12;5.07;;;4.77;;
315;SDS011;14128;48.686;9.738;2023-06-14T03:40:41;6.03;;;5.20;;
315;SDS011;14128;48.686;9.738;2023-06-14T03:43:08;4.70;;;4.10;;
315;SDS011;14128;48.686;9.738;2023-06-14T03:45:35;5.50;;;4.83;;
315;SDS011;14128;48.686;9.738;2023-06-14T03:48:02;9.03;;;4.90;;
315;SDS011;14128;48.686;9.738;2023-06-14T03:50:31;8.03;;;4.90;;
315;SDS011;14128;48.686;9.738;2023-06-14T03:52:58;7.23;;;5.20;;
315;SDS011;14128;48.686;9.738;2023-06-14T03:55:26;5.30;;;5.00;;
315;SDS011;14128;48.686;9.738;2023-06-14T03:57:57;8.00;;;5.77;;
315;SDS011;14128;48.686;9.738;2023-06-14T04:00:24;5.20;;;4.30;;
315;SDS011;14128;48.686;9.738;2023-06-14T04:02:52;7.20;;;5.30;;
315;SDS011;14128;48.686;9.738;2023-06-14T04:05:19;8.50;;;4.60;;
315;SDS011;14128;48.686;9.738;2023-06-14T04:07:46;8.00;;;5.70;;
315;SDS011;14128;48.686;9.738;2023-06-14T04:10:14;8.40;;;5.80;;
315;SDS011;14128;48.686;9.738;2023-06-14T04:12:42;6.03;;;4.60;;
315;SDS011;14128;48.686;9.738;2023-06-14T04:15:10;8.67;;;6.27;;
315;SDS011;14128;48.686;9.738;2023-06-14T04:17:37;6.50;;;4.60;;
315;SDS011;14128;48.686;9.738;2023-06-14T04:20:04;7.70;;;5.37;;
315;SDS011;14128;48.686;9.738;2023-06-14T04:22:34;5.17;;;4.90;;
315;SDS011;14128;48.686;9.738;2023-06-14T04:25:01;5.27;;;4.40;;
315;SDS011;14128;48.686;9.738;2023-06-14T04:27:31;6.83;;;5.73;;
315;SDS011;14128;48.686;9.738;2023-06-14T04:30:01;5.60;;;4.60;;
315;SDS011;14128;48.686;9.738;2023-06-14T04:32:29;4.83;;;3.93;;
315;SDS011;14128;48.686;9.738;2023-06-14T04:34:58;5.30;;;5.00;;
315;SDS011;14128;48.686;9.738;2023-06-14T04:37:27;4.57;;;4.27;;
315;SDS011;14128;48.686;9.738;2023-06-14T04:39:55;5.90;;;4.80;;
315;SDS011;14128;48.686;9.738;2023-06-14T04:42:22;6.13;;;5.63;;
315;SDS011;14128;48.686;9.738;2023-06-14T04:44:56;5.83;;;4.57;;
315;SDS011;14128;48.686;9.738;2023-06-14T04:47:23;5.20;;;4.73;;
315;SDS011;14128;48.686;9.738;2023-06-14T04:49:56;7.87;;;5.23;;
315;SDS011;14128;48.686;9.738;2023-06-14T04:52:23;6.20;;;4.40;;
315;SDS011;14128;48.686;9.738;2023-06-14T04:54:52;9.80;;;5.20;;
315;SDS011;14128;48.686;9.738;2023-06-14T04:57:19;6.60;;;4.93;;
315;SDS011;14128;48.686;9.738;2023-06-14T04:59:47;7.30;;;4.97;;
315;SDS011;14128;48.686;9.738;2023-06-14T05:02:19;7.67;;;4.60;;
315;SDS011;14128;48.686;9.738;2023-06-14T05:04:47;9.50;;;6.00;;
315;SDS011;14128;48.686;9.738;2023-06-14T05:07:15;8.67;;;5.77;;
315;SDS011;14128;48.686;9.738;2023-06-14T05:09:42;5.90;;;5.20;;
315;SDS011;14128;48.686;9.738;2023-06-14T05:12:09;13.80;;;7.03;;
315;SDS011;14128;48.686;9.738;2023-06-14T05:14:36;13.30;;;6.60;;
315;SDS011;14128;48.686;9.738;2023-06-14T05:17:03;7.43;;;5.50;;
315;SDS011;14128;48.686;9.738;2023-06-14T05:19:30;6.43;;;4.93;;
315;SDS011;14128;48.686;9.738;2023-06-14T05:21:57;6.50;;;4.83;;
315;SDS011;14128;48.686;9.738;2023-06-14T05:24:26;9.87;;;4.60;;
315;SDS011;14128;48.686;9.738;2023-06-14T05:26:54;9.30;;;5.13;;
315;SDS011;14128;48.686;9.738;2023-06-14T05:29:21;9.90;;;4.17;;
315;SDS011;14128;48.686;9.738;2023-06-14T05:31:48;11.00;;;4.57;;
315;SDS011;14128;48.686;9.738;2023-06-14T05:34:15;9.03;;;4.97;;
315;SDS011;14128;48.686;9.738;2023-06-14T05:36:41;5.70;;;4.50;;
315;SDS011;14128;48.686;9.738;2023-06-14T05:39:08;5.60;;;4.30;;
315;SDS011;14128;48.686;9.738;2023-06-14T05:41:36;9.53;;;5.23;;
315;SDS011;14128;48.686;9.738;2023-06-14T05:44:03;9.80;;;5.20;;
315;SDS011;14128;48.686;9.738;2023-06-14T05:46:30;6.00;;;5.70;;
315;SDS011;14128;48.686;9.738;2023-06-14T05:48:57;7.67;;;5.20;;
315;SDS011;14128;48.686;9.738;2023-06-14T05:51:24;6.53;;;5.00;;
315;SDS011;14128;48.686;9.738;2023-06-14T05:53:51;8.07;;;5.63;;
315;SDS011;14128;48.686;9.738;2023-06-14T05:56:19;3.37;;;2.90;;
315;SDS011;14128;48.686;9.738;2023-06-14T05:58:47;4.27;;;4.00;;
315;SDS011;14128;48.686;9.738;2023-06-14T06:01:15;5.40;;;4.10;;
315;SDS011;14128;48.686;9.738;2023-06-14T06:03:42;7.60;;;4.17;;
315;SDS011;14128;48.686;9.738;2023-06-14T06:06:11;3.90;;;3.70;;
315;SDS011;14128;48.686;9.738;2023-06-14T06:08:38;5.30;;;3.93;;
315;SDS011;14128;48.686;9.738;2023-06-14T06:11:05;4.63;;;3.90;;
315;SDS011;14128;48.686;9.738;2023-06-14T06:13:32;5.50;;;4.50;;
315;SDS011;14128;48.686;9.738;2023-06-14T06:16:01;8.60;;;4.20;;
315;SDS011;14128;48.686;9.738;2023-06-14T06:18:28;6.90;;;3.40;;
315;SDS011;14128;48.686;9.738;2023-06-14T06:20:55;7.23;;;4.37;;
315;SDS011;14128;48.686;9.738;2023-06-14T06:23:22;5.20;;;4.07;;
315;SDS011;14128;48.686;9.738;2023-06-14T06:25:49;3.63;;;3.43;;
315;SDS011;14128;48.686;9.738;2023-06-14T06:28:16;5.83;;;4.13;;
315;SDS011;14128;48.686;9.738;2023-06-14T06:30:43;4.07;;;3.90;;
315;SDS011;14128;48.686;9.738;2023-06-14T06:33:11;4.97;;;3.63;;
315;SDS011;14128;48.686;9.738;2023-06-14T06:35:39;4.10;;;3.33;;
315;SDS011;14128;48.686;9.738;2023-06-14T06:38:06;4.80;;;3.83;;
315;SDS011;14128;48.686;9.738;2023-06-14T06:40:33;6.43;;;4.10;;
315;SDS011;14128;48.686;9.738;2023-06-14T06:43:01;5.40;;;3.50;;
315;SDS011;14128;48.686;9.738;2023-06-14T06:45:28;3.90;;;3.40;;
315;SDS011;14128;48.686;9.738;2023-06-14T06:47:55;4.43;;;4.03;;
315;SDS011;14128;48.686;9.738;2023-06-14T06:50:23;6.60;;;4.07;;
315;SDS011;14128;48.686;9.738;2023-06-14T06:52:50;5.10;;;4.80;;
315;SDS011;14128;48.686;9.738;2023-06-14T06:55:17;9.40;;;3.60;;
315;SDS011;14128;48.686;9.738;2023-06-14T06:57:45;5.73;;;4.23;;
315;SDS011;14128;48.686;9.738;2023-06-14T07:00:12;4.20;;;3.23;;
315;SDS011;14128;48.686;9.738;2023-06-14T07:02:39;6.10;;;4.27;;
315;SDS011;14128;48.686;9.738;2023-06-14T07:05:06;4.40;;;4.00;;
315;SDS011;14128;48.686;9.738;2023-06-14T07:07:34;4.40;;;4.10;;
315;SDS011;14128;48.686;9.738;2023-06-14T07:10:01;7.40;;;4.30;;
315;SDS011;14128;48.686;9.738;2023-06-14T07:12:29;6.47;;;4.57;;
315;SDS011;14128;48.686;9.738;2023-06-14T07:14:58;4.53;;;3.93;;
315;SDS011;14128;48.686;9.738;2023-06-14T07:17:25;8.00;;;3.50;;
315;SDS011;14128;48.686;9.738;2023-06-14T07:19:52;4.10;;;3.70;;
315;SDS011;14128;48.686;9.738;2023-06-14T07:22:19;4.83;;;4.37;;
315;SDS011;14128;48.686;9.738;2023-06-14T07:24:47;4.87;;;3.27;;
315;SDS011;14128;48.686;9.738;2023-06-14T07:27:14;4.37;;;4.10;;
315;SDS011;14128;48.686;9.738;2023-06-14T07:29:41;5.27;;;3.90;;
315;SDS011;14128;48.686;9.738;2023-06-14T07:32:08;6.67;;;3.47;;
315;SDS011;14128;48.686;9.738;2023-06-14T07:34:35;4.23;;;3.50;;
315;SDS011;14128;48.686;9.738;2023-06-14T07:37:02;4.13;;;3.93;;
315;SDS011;14128;48.686;9.738;2023-06-14T07:39:29;5.43;;;4.63;;
315;SDS011;14128;48.686;9.738;2023-06-14T07:41:57;4.33;;;4.03;;
315;SDS011;14128;48.686;9.738;2023-06-14T07:44:24;4.50;;;3.53;;
315;SDS011;14128;48.686;9.738;2023-06-14T07:46:51;5.20;;;4.17;;
315;SDS011;14128;48.686;9.738;2023-06-14T07:49:18;5.80;;;4.67;;
315;SDS011;14128;48.686;9.738;2023-06-14T07:51:45;5.80;;;4.03;;
315;SDS011;14128;48.686;9.738;2023-06-14T07:54:13;8.07;;;5.03;;
315;SDS011;14128;48.686;9.738;2023-06-14T07:56:40;5.30;;;4.27;;
315;SDS011;14128;48.686;9.738;2023-06-14T07:59:09;4.40;;;4.10;;
315;SDS011;14128;48.686;9.738;2023-06-14T08:01:36;5.47;;;5.00;;
315;SDS011;14128;48.686;9.738;2023-06-14T08:04:03;5.97;;;4.87;;
315;SDS011;14128;48.686;9.738;2023-06-14T08:06:30;5.60;;;4.70;;
315;SDS011;14128;48.686;9.738;2023-06-14T08:08:58;9.40;;;4.53;;
315;SDS011;14128;48.686;9.738;2023-06-14T08:11:25;7.87;;;5.43;;
315;SDS011;14128;48.686;9.738;2023-06-14T08:13:52;5.33;;;4.30;;
315;SDS011;14128;48.686;9.738;2023-06-14T08:16:20;5.47;;;5.17;;
315;SDS011;14128;48.686;9.738;2023-06-14T08:18:48;5.67;;;5.10;;
315;SDS011;14128;48.686;9.738;2023-06-14T08:21:15;6.37;;;5.03;;
315;SDS011;14128;48.686;9.738;2023-06-14T08:23:43;5.33;;;5.10;;
315;SDS011;14128;48.686;9.738;2023-06-14T08:26:10;4.83;;;4.27;;
315;SDS011;14128;48.686;9.738;2023-06-14T08:28:37;7.90;;;4.17;;
315;SDS011;14128;48.686;9.738;2023-06-14T08:31:03;12.00;;;5.03;;
315;SDS011;14128;48.686;9.738;2023-06-14T08:33:32;4.87;;;4.40;;
315;SDS011;14128;48.686;9.738;2023-06-14T08:35:59;4.33;;;4.03;;
315;SDS011;14128;48.686;9.738;2023-06-14T08:38:26;5.30;;;4.43;;
315;SDS011;14128;48.686;9.738;2023-06-14T08:40:53;5.43;;;4.57;;
315;SDS011;14128;48.686;9.738;2023-06-14T08:43:24;5.30;;;4.43;;
315;SDS011;14128;48.686;9.738;2023-06-14T08:45:51;5.83;;;4.30;;
315;SDS011;14128;48.686;9.738;2023-06-14T08:48:24;4.20;;;3.73;;
315;SDS011;14128;48.686;9.738;2023-06-14T08:50:54;6.00;;;4.87;;
315;SDS011;14128;48.686;9.738;2023-06-14T08:53:26;6.20;;;3.50;;
315;SDS011;14128;48.686;9.738;2023-06-14T08:55:56;6.30;;;3.87;;
315;SDS011;14128;48.686;9.738;2023-06-14T08:58:25;5.77;;;4.20;;
315;SDS011;14128;48.686;9.738;2023-06-14T09:00:54;4.03;;;3.83;;
315;SDS011;14128;48.686;9.738;2023-06-14T09:03:21;4.10;;;3.73;;
315;SDS011;14128;48.686;9.738;2023-06-14T09:05:56;6.80;;;4.20;;
315;SDS011;14128;48.686;9.738;2023-06-14T09:08:25;4.50;;;4.00;;
315;SDS011;14128;48.686;9.738;2023-06-14T09:10:55;4.90;;;4.70;;
315;SDS011;14128;48.686;9.738;2023-06-14T09:13:22;4.90;;;3.97;;
315;SDS011;14128;48.686;9.738;2023-06-14T09:15:49;4.40;;;4.10;;
315;SDS011;14128;48.686;9.738;2023-06-14T09:18:17;4.50;;;4.00;;
315;SDS011;14128;48.686;9.738;2023-06-14T09:20:45;4.17;;;3.93;;
315;SDS011;14128;48.686;9.738;2023-06-14T09:23:14;4.27;;;3.83;;
315;SDS011;14128;48.686;9.738;2023-06-14T09:25:47;5.40;;;4.10;;
315;SDS011;14128;48.686;9.738;2023-06-14T09:28:14;4.83;;;4.20;;
315;SDS011;14128;48.686;9.738;2023-06-14T09:30:41;4.33;;;4.03;;
315;SDS011;14128;48.686;9.738;2023-06-14T09:33:07;5.10;;;3.57;;
315;SDS011;14128;48.686;9.738;2023-06-14T09:35:34;7.47;;;4.17;;
315;SDS011;14128;48.686;9.738;2023-06-14T09:38:02;5.50;;;4.20;;
315;SDS011;14128;48.686;9.738;2023-06-14T09:40:30;3.60;;;3.10;;
315;SDS011;14128;48.686;9.738;2023-06-14T09:43:00;5.10;;;4.07;;
315;SDS011;14128;48.686;9.738;2023-06-14T09:45:30;5.43;;;4.10;;
315;SDS011;14128;48.686;9.738;2023-06-14T09:47:57;6.73;;;3.93;;
315;SDS011;14128;48.686;9.738;2023-06-14T09:50:24;3.97;;;3.80;;
315;SDS011;14128;48.686;9.738;2023-06-14T09:52:52;5.60;;;4.03;;
315;SDS011;14128;48.686;9.738;2023-06-14T09:55:20;5.63;;;4.00;;
315;SDS011;14128;48.686;9.738;2023-06-14T09:57:49;5.57;;;3.80;;
315;SDS011;14128;48.686;9.738;2023-06-14T10:00:17;4.77;;;4.47;;
315;SDS011;14128;48.686;9.738;2023-06-14T10:02:46;3.73;;;3.53;;
315;SDS011;14128;48.686;9.738;2023-06-14T10:05:24;5.37;;;4.40;;
315;SDS011;14128;48.686;9.738;2023-06-14T10:07:55;5.90;;;3.63;;
315;SDS011;14128;48.686;9.738;2023-06-14T10:10:26;4.53;;;4.23;;
315;SDS011;14128;48.686;9.738;2023-06-14T10:12:54;6.70;;;4.53;;
315;SDS011;14128;48.686;9.738;2023-06-14T10:15:22;4.60;;;4.20;;
315;SDS011;14128;48.686;9.738;2023-06-14T10:17:55;4.63;;;3.37;;
315;SDS011;14128;48.686;9.738;2023-06-14T10:20:28;4.90;;;3.57;;
315;SDS011;14128;48.686;9.738;2023-06-14T10:23:00;5.37;;;4.20;;
315;SDS011;14128;48.686;9.738;2023-06-14T10:25:31;7.13;;;4.67;;
315;SDS011;14128;48.686;9.738;2023-06-14T10:28:05;4.87;;;4.57;;
315;SDS011;14128;48.686;9.738;2023-06-14T10:33:31;4.33;;;4.07;;
315;SDS011;14128;48.686;9.738;2023-06-14T10:36:23;4.80;;;3.80;;
315;SDS011;14128;48.686;9.738;2023-06-14T10:38:59;4.93;;;3.97;;
315;SDS011;14128;48.686;9.738;2023-06-14T10:41:27;5.67;;;3.70;;
315;SDS011;14128;48.686;9.738;2023-06-14T10:44:15;4.43;;;4.00;;
315;SDS011;14128;48.686;9.738;2023-06-14T10:46:59;6.80;;;3.80;;
315;SDS011;14128;48.686;9.738;2023-06-14T10:49:39;4.27;;;4.00;;
315;SDS011;14128;48.686;9.738;2023-06-14T10:52:08;4.00;;;3.60;;
315;SDS011;14128;48.686;9.738;2023-06-14T10:57:31;5.30;;;3.73;;
315;SDS011;14128;48.686;9.738;2023-06-14T11:00:00;7.30;;;4.90;;
315;SDS011;14128;48.686;9.738;2023-06-14T11:02:47;4.77;;;3.70;;
315;SDS011;14128;48.686;9.738;2023-06-14T11:05:27;4.47;;;4.17;;
315;SDS011;14128;48.686;9.738;2023-06-14T11:08:09;3.80;;;3.60;;
315;SDS011;14128;48.686;9.738;2023-06-14T11:10:54;4.70;;;4.10;;
315;SDS011;14128;48.686;9.738;2023-06-14T11:13:25;4.30;;;4.03;;
315;SDS011;14128;48.686;9.738;2023-06-14T11:15:55;6.53;;;4.00;;
315;SDS011;14128;48.686;9.738;2023-06-14T11:18:23;5.00;;;4.70;;
315;SDS011;14128;48.686;9.738;2023-06-14T11:20:52;5.80;;;3.73;;
315;SDS011;14128;48.686;9.738;2023-06-14T11:23:20;4.10;;;3.60;;
315;SDS011;14128;48.686;9.738;2023-06-14T11:25:49;3.63;;;3.23;;
315;SDS011;14128;48.686;9.738;2023-06-14T11:28:17;6.70;;;3.80;;
315;SDS011;14128;48.686;9.738;2023-06-14T11:30:46;4.73;;;3.97;;
315;SDS011;14128;48.686;9.738;2023-06-14T11:33:17;4.43;;;3.90;;
315;SDS011;14128;48.686;9.738;2023-06-14T11:35:44;4.93;;;4.10;;
315;SDS011;14128;48.686;9.738;2023-06-14T11:38:11;4.60;;;3.57;;
315;SDS011;14128;48.686;9.738;2023-06-14T11:40:39;5.10;;;4.10;;
315;SDS011;14128;48.686;9.738;2023-06-14T11:43:05;7.67;;;4.30;;
315;SDS011;14128;48.686;9.738;2023-06-14T11:45:33;5.27;;;4.30;;
315;SDS011;14128;48.686;9.738;2023-06-14T11:48:00;5.03;;;4.17;;
315;SDS011;14128;48.686;9.738;2023-06-14T11:50:28;4.17;;;3.37;;
315;SDS011;14128;48.686;9.738;2023-06-14T11:52:59;3.33;;;3.03;;
315;SDS011;14128;48.686;9.738;2023-06-14T11:55:31;4.53;;;3.93;;
315;SDS011;14128;48.686;9.738;2023-06-14T11:57:58;5.17;;;4.17;;
315;SDS011;14128;48.686;9.738;2023-06-14T12:00:25;5.50;;;3.90;;
315;SDS011;14128;48.686;9.738;2023-06-14T12:02:53;5.33;;;3.73;;
315;SDS011;14128;48.686;9.738;2023-06-14T12:05:20;3.63;;;3.50;;
315;SDS011;14128;48.686;9.738;2023-06-14T12:07:49;6.47;;;3.40;;
315;SDS011;14128;48.686;9.738;2023-06-14T12:10:18;5.90;;;4.00;;
315;SDS011;14128;48.686;9.738;2023-06-14T12:12:45;5.50;;;3.63;;
315;SDS011;14128;48.686;9.738;2023-06-14T12:15:12;5.77;;;4.17;;
315;SDS011;14128;48.686;9.738;2023-06-14T12:17:39;3.70;;;3.50;;
315;SDS011;14128;48.686;9.738;2023-06-14T12:20:09;4.33;;;3.50;;
315;SDS011;14128;48.686;9.738;2023-06-14T12:22:38;6.97;;;4.53;;
315;SDS011;14128;48.686;9.738;2023-06-14T12:25:07;4.60;;;4.27;;
315;SDS011;14128;48.686;9.738;2023-06-14T12:27:35;3.80;;;3.60;;
315;SDS011;14128;48.686;9.738;2023-06-14T12:30:02;5.10;;;4.50;;
315;SDS011;14128;48.686;9.738;2023-06-14T12:32:30;4.13;;;3.53;;
315;SDS011;14128;48.686;9.738;2023-06-14T12:34:57;4.80;;;3.33;;
315;SDS011;14128;48.686;9.738;2023-06-14T12:37:24;3.63;;;3.43;;
315;SDS011;14128;48.686;9.738;2023-06-14T12:39:50;3.40;;;2.97;;
315;SDS011;14128;48.686;9.738;2023-06-14T12:42:18;3.70;;;3.43;;
315;SDS011;14128;48.686;9.738;2023-06-14T12:44:45;5.33;;;3.97;;
315;SDS011;14128;48.686;9.738;2023-06-14T12:47:12;3.10;;;2.90;;
315;SDS011;14128;48.686;9.738;2023-06-14T12:49:39;8.43;;;3.70;;
315;SDS011;14128;48.686;9.738;2023-06-14T12:52:07;3.90;;;3.70;;
315;SDS011;14128;48.686;9.738;2023-06-14T12:54:35;4.23;;;3.50;;
315;SDS011;14128;48.686;9.738;2023-06-14T12:57:04;5.60;;;4.07;;
315;SDS011;14128;48.686;9.738;2023-06-14T12:59:33;5.70;;;3.50;;
315;SDS011;14128;48.686;9.738;2023-06-14T13:02:09;3.33;;;3.17;;
315;SDS011;14128;48.686;9.738;2023-06-14T13:04:37;3.40;;;3.23;;
315;SDS011;14128;48.686;9.738;2023-06-14T13:07:04;4.70;;;4.23;;
315;SDS011;14128;48.686;9.738;2023-06-14T13:09:31;3.20;;;3.00;;
315;SDS011;14128;48.686;9.738;2023-06-14T13:11:58;4.10;;;3.70;;
315;SDS011;14128;48.686;9.738;2023-06-14T13:14:25;4.67;;;3.60;;
315;SDS011;14128;48.686;9.738;2023-06-14T13:16:54;3.70;;;3.50;;
315;SDS011;14128;48.686;9.738;2023-06-14T13:19:21;3.53;;;3.17;;
315;SDS011;14128;48.686;9.738;2023-06-14T13:21:48;4.67;;;3.80;;
315;SDS011;14128;48.686;9.738;2023-06-14T13:24:15;5.50;;;3.63;;
315;SDS011;14128;48.686;9.738;2023-06-14T13:26:42;3.60;;;3.20;;
315;SDS011;14128;48.686;9.738;2023-06-14T13:29:09;3.63;;;3.43;;
315;SDS011;14128;48.686;9.738;2023-06-14T13:31:36;3.63;;;2.80;;
315;SDS011;14128;48.686;9.738;2023-06-14T13:34:04;4.30;;;3.60;;
315;SDS011;14128;48.686;9.738;2023-06-14T13:36:32;3.60;;;3.30;;
315;SDS011;14128;48.686;9.738;2023-06-14T13:38:59;8.80;;;3.47;;
315;SDS011;14128;48.686;9.738;2023-06-14T13:41:26;3.40;;;3.20;;
315;SDS011;14128;48.686;9.738;2023-06-14T13:43:56;3.17;;;2.97;;
315;SDS011;14128;48.686;9.738;2023-06-14T13:46:24;4.57;;;3.47;;
315;SDS011;14128;48.686;9.738;2023-06-14T13:48:51;4.70;;;3.93;;
315;SDS011;14128;48.686;9.738;2023-06-14T13:51:20;4.37;;;3.27;;
315;SDS011;14128;48.686;9.738;2023-06-14T13:53:48;4.90;;;4.00;;
315;SDS011;14128;48.686;9.738;2023-06-14T13:56:15;3.20;;;3.00;;
315;SDS011;14128;48.686;9.738;2023-06-14T13:58:43;4.50;;;4.00;;
315;SDS011;14128;48.686;9.738;2023-06-14T14:01:10;4.17;;;3.93;;
315;SDS011;14128;48.686;9.738;2023-06-14T14:03:37;3.30;;;3.10;;
315;SDS011;14128;48.686;9.738;2023-06-14T14:06:04;3.40;;;3.20;;
315;SDS011;14128;48.686;9.738;2023-06-14T14:08:34;3.77;;;3.20;;
315;SDS011;14128;48.686;9.738;2023-06-14T14:11:01;4.40;;;3.57;;
315;SDS011;14128;48.686;9.738;2023-06-14T14:13:28;5.30;;;3.40;;
315;SDS011;14128;48.686;9.738;2023-06-14T14:15:55;7.53;;;4.00;;
315;SDS011;14128;48.686;9.738;2023-06-14T14:18:22;5.43;;;3.73;;
315;SDS011;14128;48.686;9.738;2023-06-14T14:20:49;6.03;;;3.47;;
315;SDS011;14128;48.686;9.738;2023-06-14T14:23:16;4.70;;;4.07;;
315;SDS011;14128;48.686;9.738;2023-06-14T14:25:46;4.37;;;4.07;;
315;SDS011;14128;48.686;9.738;2023-06-14T14:28:13;4.40;;;3.60;;
315;SDS011;14128;48.686;9.738;2023-06-14T14:30:41;3.70;;;3.27;;
315;SDS011;14128;48.686;9.738;2023-06-14T14:33:08;4.73;;;3.20;;
315;SDS011;14128;48.686;9.738;2023-06-14T14:35:40;4.07;;;3.33;;
315;SDS011;14128;48.686;9.738;2023-06-14T14:38:07;3.77;;;3.63;;
315;SDS011;14128;48.686;9.738;2023-06-14T14:40:34;3.70;;;3.13;;
315;SDS011;14128;48.686;9.738;2023-06-14T14:43:03;3.43;;;3.27;;
315;SDS011;14128;48.686;9.738;2023-06-14T14:45:30;3.57;;;3.33;;
315;SDS011;14128;48.686;9.738;2023-06-14T14:47:57;6.00;;;3.10;;
315;SDS011;14128;48.686;9.738;2023-06-14T14:50:24;3.67;;;3.50;;
315;SDS011;14128;48.686;9.738;2023-06-14T14:52:52;3.63;;;3.43;;
315;SDS011;14128;48.686;9.738;2023-06-14T14:55:19;4.37;;;2.80;;
315;SDS011;14128;48.686;9.738;2023-06-14T14:57:46;4.27;;;3.57;;
315;SDS011;14128;48.686;9.738;2023-06-14T15:00:14;3.47;;;2.80;;
315;SDS011;14128;48.686;9.738;2023-06-14T15:02:42;3.50;;;3.20;;
315;SDS011;14128;48.686;9.738;2023-06-14T15:05:09;3.30;;;3.10;;
315;SDS011;14128;48.686;9.738;2023-06-14T15:07:35;3.90;;;3.73;;
315;SDS011;14128;48.686;9.738;2023-06-14T15:10:05;4.03;;;2.93;;
315;SDS011;14128;48.686;9.738;2023-06-14T15:12:33;5.63;;;2.83;;
315;SDS011;14128;48.686;9.738;2023-06-14T15:15:00;5.63;;;3.33;;
315;SDS011;14128;48.686;9.738;2023-06-14T15:17:28;3.60;;;3.10;;
315;SDS011;14128;48.686;9.738;2023-06-14T15:19:56;3.77;;;3.20;;
315;SDS011;14128;48.686;9.738;2023-06-14T15:22:22;6.80;;;2.73;;
315;SDS011;14128;48.686;9.738;2023-06-14T15:24:49;4.20;;;2.67;;
315;SDS011;14128;48.686;9.738;2023-06-14T15:27:16;3.67;;;3.00;;